Time;durP1;ratioP1;P1;durP2;ratioP2;P2;SDS_P1;SDS_P2;PMS_P1;PMS_P2;Temp;Humidity;BMP_temperature;BMP_pressure;BME280_temperature;BME280_humidity;BME280_pressure;Samples;Min_cycle;Max_cycle;Signal;HPM_P1;HPM_P2
2022/09/06 00:01:12;;;;;;;0.50;0.40;;;21.40;99.90;;;;;;5052599;28;20453;-78
2022/09/06 00:03:39;;;;;;;0.50;0.30;;;21.40;99.90;;;;;;5053875;28;20468;-79
2022/09/06 00:06:08;;;;;;;0.50;0.30;;;21.40;99.90;;;;;;5052997;28;20584;-79
2022/09/06 00:08:35;;;;;;;0.50;0.30;;;21.40;99.90;;;;;;5052975;28;20536;-79
2022/09/06 00:11:02;;;;;;;0.50;0.30;;;21.30;99.90;;;;;;5053337;28;20532;-79
2022/09/06 00:13:30;;;;;;;0.50;0.30;;;21.20;99.90;;;;;;5053281;28;20491;-79
2022/09/06 00:16:03;;;;;;;0.70;0.63;;;21.10;99.90;;;;;;5052844;28;20544;-79
2022/09/06 00:18:30;;;;;;;0.50;0.30;;;21.20;99.90;;;;;;5053139;28;20468;-77
2022/09/06 00:20:57;;;;;;;0.50;0.30;;;21.30;99.90;;;;;;5052808;28;20436;-79
2022/09/06 00:23:24;;;;;;;0.50;0.30;;;21.30;99.90;;;;;;5053281;28;20437;-77
2022/09/06 00:25:51;;;;;;;0.50;0.30;;;21.20;99.90;;;;;;5051823;28;20518;-79
2022/09/06 00:28:18;;;;;;;0.50;0.30;;;21.20;99.90;;;;;;5052799;28;20524;-79
2022/09/06 00:30:46;;;;;;;0.50;0.30;;;21.20;99.90;;;;;;5052620;28;20531;-79
2022/09/06 00:33:14;;;;;;;0.80;0.80;;;21.10;99.90;;;;;;5052978;28;20470;-79
2022/09/06 00:35:40;;;;;;;0.50;0.30;;;21.20;99.90;;;;;;5052453;28;20547;-77
2022/09/06 00:38:07;;;;;;;0.50;0.30;;;21.30;99.90;;;;;;5053593;28;20484;-76
2022/09/06 00:40:35;;;;;;;0.50;0.40;;;21.30;99.90;;;;;;5053087;28;20521;-79
2022/09/06 00:43:02;;;;;;;0.50;0.30;;;21.30;99.90;;;;;;5052623;28;20472;-79
2022/09/06 00:45:31;;;;;;;0.50;0.30;;;21.20;99.90;;;;;;5051638;28;20468;-79
2022/09/06 00:48:01;;;;;;;0.50;0.30;;;21.20;99.90;;;;;;5052531;28;20511;-78
2022/09/06 00:50:29;;;;;;;0.50;0.30;;;21.20;99.90;;;;;;5052936;28;20476;-79
2022/09/06 00:52:56;;;;;;;0.50;0.30;;;21.40;99.90;;;;;;5052673;28;20444;-78
2022/09/06 00:55:25;;;;;;;0.60;0.57;;;21.30;99.90;;;;;;5053037;28;20464;-79
2022/09/06 00:57:52;;;;;;;0.50;0.30;;;21.40;99.90;;;;;;5053758;28;20484;-77
2022/09/06 01:00:20;;;;;;;0.50;0.30;;;21.50;99.90;;;;;;5053719;28;20437;-76
2022/09/06 01:02:49;;;;;;;0.50;0.30;;;21.50;99.90;;;;;;5054085;28;20487;-79
2022/09/06 01:05:18;;;;;;;1.10;1.00;;;21.50;99.90;;;;;;5052367;28;20461;-78
2022/09/06 01:07:58;;;;;;;0.50;0.30;;;21.50;99.90;;;;;;5052883;28;20560;-79
2022/09/06 01:10:51;;;;;;;0.50;0.30;;;21.40;99.90;;;;;;5054344;28;20508;-77
2022/09/06 01:13:33;;;;;;;50.80;22.10;;;21.40;99.90;;;;;;5053712;28;20553;-77
2022/09/06 01:16:10;;;;;;;0.50;0.30;;;21.40;99.90;;;;;;5053390;28;20564;-77
2022/09/06 01:18:52;;;;;;;0.50;0.30;;;21.50;99.90;;;;;;5053443;28;20424;-78
2022/09/06 01:21:37;;;;;;;0.60;0.40;;;21.40;99.90;;;;;;5054097;28;20519;-78
2022/09/06 01:24:41;;;;;;;0.60;0.50;;;21.40;99.90;;;;;;5051651;28;20428;-78
2022/09/06 01:27:33;;;;;;;0.67;0.50;;;21.40;99.90;;;;;;5053161;28;20521;-78
2022/09/06 01:30:05;;;;;;;0.80;0.80;;;21.40;99.90;;;;;;5051590;28;20434;-79
2022/09/06 01:32:39;;;;;;;0.90;0.90;;;21.40;99.90;;;;;;5054672;28;20468;-79
2022/09/06 01:35:15;;;;;;;1.23;1.13;;;21.30;99.90;;;;;;5054011;28;20982;-78
2022/09/06 01:37:42;;;;;;;0.50;0.30;;;21.30;99.90;;;;;;5055518;28;20492;-79
2022/09/06 01:40:09;;;;;;;0.60;0.50;;;21.30;99.90;;;;;;5055333;28;20472;-78
2022/09/06 01:42:38;;;;;;;0.50;0.30;;;21.30;99.90;;;;;;5054584;28;20517;-79
2022/09/06 01:45:10;;;;;;;1.23;1.00;;;21.30;99.90;;;;;;5053764;28;21069;-79
2022/09/06 01:47:50;;;;;;;0.60;0.60;;;21.30;99.90;;;;;;5054182;28;20512;-78
2022/09/06 01:50:32;;;;;;;0.50;0.30;;;21.30;99.90;;;;;;5053647;28;20461;-78
2022/09/06 01:53:10;;;;;;;1.73;1.63;;;21.30;99.90;;;;;;5051493;28;20480;-80
2022/09/06 01:55:47;;;;;;;0.50;0.30;;;21.30;99.90;;;;;;5052097;28;20895;-80
2022/09/06 01:58:38;;;;;;;0.50;0.30;;;21.30;99.90;;;;;;5052568;28;20488;-80
2022/09/06 02:01:15;;;;;;;0.50;0.30;;;21.30;99.90;;;;;;5052071;28;20464;-79
2022/09/06 02:03:48;;;;;;;0.50;0.40;;;21.30;99.90;;;;;;5053752;28;20517;-80
2022/09/06 02:06:22;;;;;;;0.50;0.33;;;21.40;99.90;;;;;;5053272;28;21018;-78
2022/09/06 02:08:53;;;;;;;0.50;0.30;;;21.40;99.90;;;;;;5053881;28;20457;-79
2022/09/06 02:11:21;;;;;;;0.50;0.30;;;21.30;99.90;;;;;;5053746;28;20496;-80
2022/09/06 02:13:52;;;;;;;0.70;0.50;;;21.20;99.90;;;;;;5053173;28;20529;-78
2022/09/06 02:16:24;;;;;;;0.50;0.30;;;21.00;99.90;;;;;;5053026;28;20544;-78
2022/09/06 02:18:58;;;;;;;0.50;0.30;;;20.80;99.90;;;;;;5052721;28;20485;-79
2022/09/06 02:21:30;;;;;;;0.50;0.30;;;20.60;99.90;;;;;;5052043;28;20825;-78
2022/09/06 02:24:01;;;;;;;0.50;0.30;;;20.40;99.90;;;;;;5051160;28;20950;-79
2022/09/06 02:26:32;;;;;;;0.50;0.40;;;20.30;99.90;;;;;;5052106;28;20531;-79
2022/09/06 02:28:59;;;;;;;0.50;0.50;;;20.10;99.90;;;;;;5052644;28;20783;-79
2022/09/06 02:31:33;;;;;;;0.70;0.70;;;20.00;99.90;;;;;;5051973;28;20886;-78
2022/09/06 02:34:00;;;;;;;0.70;0.60;;;19.90;99.90;;;;;;5051757;28;20535;-79
2022/09/06 02:36:29;;;;;;;0.50;0.30;;;19.80;99.90;;;;;;5052183;28;20457;-80
2022/09/06 02:38:57;;;;;;;0.50;0.30;;;19.80;99.90;;;;;;5051917;28;20453;-78
2022/09/06 02:41:24;;;;;;;0.50;0.30;;;19.70;99.90;;;;;;5051677;28;20445;-80
2022/09/06 02:43:51;;;;;;;0.50;0.30;;;19.60;99.90;;;;;;5053174;28;20540;-78
2022/09/06 02:46:18;;;;;;;0.50;0.30;;;19.50;99.90;;;;;;5051122;28;20556;-79
2022/09/06 02:48:46;;;;;;;0.50;0.30;;;19.60;99.90;;;;;;5051930;28;20580;-78
2022/09/06 02:51:13;;;;;;;0.50;0.30;;;19.50;99.90;;;;;;5052424;28;20531;-78
2022/09/06 02:53:40;;;;;;;0.50;0.30;;;19.30;99.90;;;;;;5051984;28;20531;-78
2022/09/06 02:56:07;;;;;;;0.50;0.30;;;19.40;99.90;;;;;;5051771;28;20537;-80
2022/09/06 02:58:35;;;;;;;0.50;0.30;;;19.40;99.90;;;;;;5051248;28;20519;-80
2022/09/06 03:01:02;;;;;;;0.60;0.60;;;19.30;99.90;;;;;;5051503;28;20523;-80
2022/09/06 03:03:28;;;;;;;0.60;0.50;;;19.40;99.90;;;;;;5051790;28;20867;-79
2022/09/06 03:05:57;;;;;;;0.50;0.30;;;19.50;99.90;;;;;;5054739;28;20544;-80
2022/09/06 03:08:25;;;;;;;0.50;0.40;;;19.50;99.90;;;;;;5054915;28;20576;-80
2022/09/06 03:10:54;;;;;;;0.50;0.30;;;19.40;99.90;;;;;;5055344;28;20444;-79
2022/09/06 03:13:22;;;;;;;0.50;0.37;;;19.40;99.90;;;;;;5055339;28;20449;-78
2022/09/06 03:15:51;;;;;;;0.50;0.30;;;19.30;99.90;;;;;;5054385;28;20544;-78
2022/09/06 03:18:18;;;;;;;0.50;0.30;;;19.20;99.90;;;;;;5054508;28;20441;-78
2022/09/06 03:20:45;;;;;;;0.50;0.30;;;19.20;99.90;;;;;;5055693;28;20876;-78
2022/09/06 03:23:13;;;;;;;0.50;0.30;;;19.20;99.90;;;;;;5055339;28;20471;-78
2022/09/06 03:25:40;;;;;;;0.50;0.30;;;19.20;99.90;;;;;;5054367;28;20540;-79
2022/09/06 03:28:06;;;;;;;0.50;0.30;;;19.20;99.90;;;;;;5054578;28;20512;-77
2022/09/06 03:30:33;;;;;;;0.50;0.30;;;19.20;99.90;;;;;;5054835;28;20528;-78
2022/09/06 03:33:00;;;;;;;0.50;0.30;;;19.20;99.90;;;;;;5054372;28;20492;-78
2022/09/06 03:35:27;;;;;;;0.50;0.30;;;19.20;99.90;;;;;;5054214;28;20474;-80
2022/09/06 03:37:54;;;;;;;0.50;0.30;;;19.20;99.90;;;;;;5054203;28;20873;-78
2022/09/06 03:40:22;;;;;;;0.50;0.30;;;19.20;99.90;;;;;;5054992;28;20889;-78
2022/09/06 03:42:49;;;;;;;0.50;0.33;;;19.10;99.90;;;;;;5054187;28;20512;-78
2022/09/06 03:45:16;;;;;;;0.53;0.40;;;19.00;99.90;;;;;;5053555;28;20911;-79
2022/09/06 03:47:43;;;;;;;0.50;0.30;;;19.00;99.90;;;;;;5054535;28;20473;-78
2022/09/06 03:50:10;;;;;;;0.50;0.30;;;18.90;99.90;;;;;;5054725;28;21065;-78
2022/09/06 03:52:37;;;;;;;0.50;0.30;;;18.90;99.90;;;;;;5054145;28;20468;-78
2022/09/06 03:55:05;;;;;;;0.50;0.40;;;18.80;99.90;;;;;;5053974;28;20488;-78
2022/09/06 03:57:33;;;;;;;0.50;0.40;;;18.80;99.90;;;;;;5054477;28;20543;-79
2022/09/06 04:00:00;;;;;;;0.50;0.30;;;18.70;99.90;;;;;;5053935;28;20520;-78
2022/09/06 04:02:27;;;;;;;0.50;0.30;;;18.70;99.90;;;;;;5054261;28;20429;-78
2022/09/06 04:04:54;;;;;;;0.50;0.30;;;18.70;99.90;;;;;;5053404;28;20496;-77
2022/09/06 04:07:21;;;;;;;0.50;0.30;;;18.70;99.90;;;;;;5054258;28;20473;-77
2022/09/06 04:09:48;;;;;;;0.50;0.40;;;18.60;99.90;;;;;;5053934;28;20477;-78
2022/09/06 04:12:15;;;;;;;0.50;0.40;;;18.50;99.90;;;;;;5054054;28;20469;-78
2022/09/06 04:14:43;;;;;;;0.50;0.30;;;18.60;99.90;;;;;;5053768;28;20555;-79
2022/09/06 04:17:11;;;;;;;0.50;0.30;;;18.70;99.90;;;;;;5053878;28;20479;-79
2022/09/06 04:19:38;;;;;;;0.50;0.30;;;18.70;99.90;;;;;;5053681;28;20440;-78
2022/09/06 04:22:05;;;;;;;0.60;0.60;;;18.70;99.90;;;;;;5053040;28;20433;-78
2022/09/06 04:24:32;;;;;;;0.50;0.30;;;18.80;99.90;;;;;;5052519;28;20549;-77
2022/09/06 04:26:59;;;;;;;0.50;0.30;;;18.80;99.90;;;;;;5054124;28;20524;-77
2022/09/06 04:29:26;;;;;;;0.50;0.47;;;18.80;99.90;;;;;;5053876;28;20560;-78
2022/09/06 04:31:54;;;;;;;0.50;0.40;;;18.80;99.90;;;;;;5050930;28;20480;-80
2022/09/06 04:34:39;;;;;;;0.50;0.30;;;18.70;99.90;;;;;;5053839;28;20480;-80
2022/09/06 04:37:06;;;;;;;0.50;0.30;;;18.70;99.90;;;;;;5047661;28;20512;-81
2022/09/06 04:39:33;;;;;;;1.83;1.73;;;18.70;99.90;;;;;;5053907;28;20520;-78
2022/09/06 04:42:00;;;;;;;0.50;0.30;;;18.70;99.90;;;;;;5053824;28;20517;-80
2022/09/06 04:44:26;;;;;;;0.50;0.30;;;18.70;99.90;;;;;;5053726;28;20476;-79
2022/09/06 04:47:06;;;;;;;0.50;0.30;;;18.70;99.90;;;;;;5054077;28;20473;-78
2022/09/06 04:49:33;;;;;;;0.50;0.40;;;18.70;99.90;;;;;;5054375;28;20496;-78
2022/09/06 04:52:00;;;;;;;0.50;0.30;;;18.70;99.90;;;;;;5054576;28;20441;-79
2022/09/06 04:54:27;;;;;;;0.50;0.30;;;18.70;99.90;;;;;;5054470;28;20461;-79
2022/09/06 04:56:53;;;;;;;0.50;0.30;;;18.70;99.90;;;;;;5054731;28;20492;-78
2022/09/06 04:59:20;;;;;;;0.50;0.30;;;18.70;99.90;;;;;;5054840;28;20484;-77
2022/09/06 05:01:47;;;;;;;0.50;0.30;;;18.70;99.90;;;;;;5054285;28;20476;-79
2022/09/06 05:04:15;;;;;;;0.50;0.40;;;18.70;99.90;;;;;;5054564;28;20520;-79
2022/09/06 05:06:42;;;;;;;0.50;0.30;;;18.70;99.90;;;;;;5053512;28;20640;-78
2022/09/06 05:09:09;;;;;;;0.50;0.30;;;18.80;99.90;;;;;;5052067;28;20523;-79
2022/09/06 05:11:36;;;;;;;0.50;0.30;;;18.80;99.90;;;;;;5052639;28;20483;-77
2022/09/06 05:14:03;;;;;;;0.50;0.40;;;18.80;99.90;;;;;;5053050;28;20425;-78
2022/09/06 05:16:30;;;;;;;0.50;0.30;;;18.80;99.90;;;;;;5046840;28;20521;-78
2022/09/06 05:18:57;;;;;;;1.77;1.13;;;18.90;99.90;;;;;;5032239;28;20528;-78
2022/09/06 05:21:25;;;;;;;0.50;0.30;;;18.90;99.90;;;;;;5036881;28;20635;-78
2022/09/06 05:23:53;;;;;;;0.50;0.30;;;18.90;99.90;;;;;;5052128;28;20700;-77
2022/09/06 05:26:19;;;;;;;0.83;0.83;;;19.00;99.90;;;;;;5034000;28;20462;-78
2022/09/06 05:28:46;;;;;;;2.10;2.00;;;19.10;99.90;;;;;;5031090;28;20572;-77
2022/09/06 05:31:25;;;;;;;1.63;0.80;;;19.10;99.90;;;;;;5032185;28;20469;-78
2022/09/06 05:33:52;;;;;;;0.60;0.57;;;19.10;99.90;;;;;;5031174;28;20549;-78
2022/09/06 05:36:19;;;;;;;1.63;1.53;;;19.20;99.90;;;;;;5031669;28;20484;-79
2022/09/06 05:38:47;;;;;;;0.57;0.57;;;19.20;99.90;;;;;;5031669;28;20442;-79
2022/09/06 05:41:22;;;;;;;0.50;0.40;;;19.20;99.90;;;;;;5032833;28;20879;-77
2022/09/06 05:43:49;;;;;;;0.50;0.30;;;19.30;99.90;;;;;;5031597;28;20421;-79
2022/09/06 05:46:17;;;;;;;0.50;0.30;;;19.30;99.90;;;;;;5031026;28;20546;-76
2022/09/06 05:48:44;;;;;;;0.50;0.30;;;19.40;99.90;;;;;;5031623;28;20505;-79
2022/09/06 05:51:12;;;;;;;0.50;0.30;;;19.40;99.90;;;;;;5032363;28;20545;-79
2022/09/06 05:53:41;;;;;;;0.50;0.30;;;19.50;99.90;;;;;;5031878;28;20545;-77
2022/09/06 05:56:10;;;;;;;0.50;0.33;;;19.50;99.90;;;;;;5031416;28;20896;-77
2022/09/06 05:58:37;;;;;;;0.50;0.30;;;19.50;99.90;;;;;;5031845;28;20473;-78
2022/09/06 06:01:06;;;;;;;0.50;0.30;;;19.50;99.90;;;;;;5032105;28;20474;-79
2022/09/06 06:03:34;;;;;;;0.50;0.30;;;19.70;99.90;;;;;;5031494;28;20533;-79
2022/09/06 06:06:00;;;;;;;0.50;0.30;;;20.80;99.90;;;;;;5032492;28;20501;-78
2022/09/06 06:08:27;;;;;;;0.50;0.30;;;22.40;99.90;;;;;;5032479;28;20628;-78
2022/09/06 06:10:58;;;;;;;0.50;0.30;;;24.00;99.90;;;;;;5032924;28;20470;-77
2022/09/06 06:13:28;;;;;;;0.50;0.30;;;25.30;99.90;;;;;;5031628;28;20445;-78
2022/09/06 06:15:55;;;;;;;0.50;0.30;;;26.60;99.90;;;;;;5031731;28;20512;-75
2022/09/06 06:18:22;;;;;;;0.50;0.30;;;27.70;99.90;;;;;;5032171;28;20529;-79
2022/09/06 06:20:49;;;;;;;0.50;0.30;;;28.50;99.90;;;;;;5032037;28;20537;-77
2022/09/06 06:23:16;;;;;;;0.50;0.30;;;29.30;99.90;;;;;;5032297;28;20442;-75
2022/09/06 06:25:43;;;;;;;0.50;0.30;;;30.40;95.50;;;;;;5031886;28;21042;-78
2022/09/06 06:28:10;;;;;;;0.50;0.30;;;31.10;89.80;;;;;;5032318;28;20918;-78
2022/09/06 06:30:38;;;;;;;0.50;0.30;;;31.40;84.70;;;;;;5044232;28;20867;-78
2022/09/06 06:33:05;;;;;;;0.50;0.30;;;31.90;82.80;;;;;;5052238;28;20473;-77
2022/09/06 06:35:32;;;;;;;0.60;0.40;;;32.20;76.70;;;;;;5053875;28;20493;-79
2022/09/06 06:37:59;;;;;;;0.73;0.50;;;32.00;75.50;;;;;;5048356;28;20457;-74
2022/09/06 06:40:26;;;;;;;0.60;0.40;;;31.50;75.00;;;;;;5053082;28;20536;-77
2022/09/06 06:42:53;;;;;;;0.50;0.30;;;31.60;75.40;;;;;;5053170;28;20433;-77
2022/09/06 06:45:20;;;;;;;0.50;0.30;;;32.30;76.40;;;;;;5051909;28;20899;-77
2022/09/06 06:47:51;;;;;;;0.50;0.30;;;32.90;72.40;;;;;;5052595;28;20548;-78
2022/09/06 06:50:18;;;;;;;0.50;0.30;;;33.40;69.60;;;;;;5051713;28;20472;-78
2022/09/06 06:52:45;;;;;;;0.50;0.30;;;34.00;69.00;;;;;;5044297;28;20552;-78
2022/09/06 06:55:11;;;;;;;0.50;0.30;;;35.00;69.00;;;;;;5032929;28;20462;-77
2022/09/06 06:57:38;;;;;;;0.50;0.30;;;35.90;68.50;;;;;;5033856;28;20528;-79
2022/09/06 07:00:06;;;;;;;0.50;0.30;;;36.70;65.20;;;;;;5033496;28;20533;-79
2022/09/06 07:02:33;;;;;;;0.40;0.30;;;37.60;61.20;;;;;;5034416;28;20442;-77
2022/09/06 07:05:02;;;;;;;0.43;0.30;;;38.10;56.30;;;;;;5033701;28;20541;-77
2022/09/06 07:07:29;;;;;;;0.47;0.30;;;38.60;54.70;;;;;;5033786;28;20445;-78
2022/09/06 07:09:56;;;;;;;0.40;0.30;;;38.70;54.60;;;;;;5033886;28;20562;-77
2022/09/06 07:12:23;;;;;;;0.40;0.30;;;39.30;53.00;;;;;;5034319;28;20882;-78
2022/09/06 07:14:49;;;;;;;1.70;1.60;;;39.90;54.40;;;;;;5033921;28;20891;-78
2022/09/06 07:17:16;;;;;;;0.40;0.30;;;40.40;51.30;;;;;;5033925;28;20469;-78
2022/09/06 07:19:43;;;;;;;0.60;0.40;;;40.60;50.20;;;;;;5033987;28;20600;-78
2022/09/06 07:22:11;;;;;;;0.40;0.30;;;40.90;49.40;;;;;;5034186;28;20529;-78
2022/09/06 07:24:39;;;;;;;0.60;0.60;;;40.90;50.00;;;;;;5033844;28;20898;-78
2022/09/06 07:27:06;;;;;;;0.40;0.30;;;40.60;49.60;;;;;;5033822;28;20441;-78
2022/09/06 07:29:33;;;;;;;0.40;0.30;;;40.80;48.70;;;;;;5033440;28;20568;-77
2022/09/06 07:32:00;;;;;;;0.40;0.30;;;40.90;48.00;;;;;;5033975;28;20441;-77
2022/09/06 07:34:27;;;;;;;0.40;0.30;;;40.70;47.60;;;;;;5033263;28;20480;-77
2022/09/06 07:36:54;;;;;;;0.40;0.30;;;40.90;47.40;;;;;;5033141;28;20478;-78
2022/09/06 07:39:23;;;;;;;0.40;0.40;;;41.00;47.90;;;;;;5033529;28;20446;-75
2022/09/06 07:41:50;;;;;;;0.40;0.30;;;40.60;47.50;;;;;;5033563;28;20525;-78
2022/09/06 07:44:17;;;;;;;0.40;0.30;;;40.90;47.80;;;;;;5033718;28;20458;-78
2022/09/06 07:46:44;;;;;;;0.40;0.30;;;40.40;47.10;;;;;;5034005;28;20525;-79
2022/09/06 07:49:11;;;;;;;0.40;0.30;;;40.30;47.30;;;;;;5033556;28;20506;-78
2022/09/06 07:51:38;;;;;;;0.40;0.30;;;40.30;47.30;;;;;;5032505;28;20528;-79
2022/09/06 07:54:05;;;;;;;0.40;0.30;;;40.40;47.30;;;;;;5032603;28;20450;-76
2022/09/06 07:56:34;;;;;;;0.40;0.30;;;41.00;47.10;;;;;;5033105;28;20493;-77
2022/09/06 07:59:00;;;;;;;0.40;0.30;;;41.10;46.50;;;;;;5033506;28;20462;-78
2022/09/06 08:01:29;;;;;;;0.40;0.40;;;40.30;47.10;;;;;;5033035;28;20524;-76
2022/09/06 08:03:58;;;;;;;0.40;0.30;;;40.80;46.40;;;;;;5032713;28;20475;-76
2022/09/06 08:06:25;;;;;;;0.40;0.30;;;40.50;46.20;;;;;;5033171;28;20496;-77
2022/09/06 08:08:53;;;;;;;0.50;0.40;;;39.20;48.10;;;;;;5033079;28;20608;-77
2022/09/06 08:11:20;;;;;;;0.40;0.30;;;39.30;47.00;;;;;;5033278;28;20474;-77
2022/09/06 08:13:51;;;;;;;2.40;2.20;;;39.00;47.50;;;;;;5032479;28;20500;-77
2022/09/06 08:16:18;;;;;;;0.47;0.33;;;39.20;48.30;;;;;;5033004;28;20573;-74
2022/09/06 08:18:49;;;;;;;0.60;0.50;;;39.30;47.30;;;;;;5033139;28;20982;-78
2022/09/06 08:21:16;;;;;;;0.77;0.60;;;39.90;47.00;;;;;;5033341;28;20485;-78
2022/09/06 08:23:46;;;;;;;0.40;0.30;;;40.10;46.40;;;;;;5033029;28;20441;-78
2022/09/06 08:26:13;;;;;;;0.60;0.60;;;39.60;46.60;;;;;;5032462;28;20469;-77
2022/09/06 08:28:40;;;;;;;1.00;0.53;;;39.80;46.40;;;;;;5032306;28;20480;-79
2022/09/06 08:31:10;;;;;;;0.40;0.30;;;38.80;46.90;;;;;;5032817;28;20524;-77
2022/09/06 08:33:38;;;;;;;0.50;0.30;;;38.40;48.30;;;;;;5032543;28;20470;-77
2022/09/06 08:36:06;;;;;;;13.13;1.23;;;36.90;49.10;;;;;;5032329;28;20557;-77
2022/09/06 08:38:33;;;;;;;0.60;0.40;;;36.50;50.10;;;;;;5032436;28;20481;-77
2022/09/06 08:41:11;;;;;;;0.50;0.30;;;37.10;49.60;;;;;;5032602;28;20869;-77
2022/09/06 08:43:39;;;;;;;0.40;0.30;;;37.10;49.90;;;;;;5032561;28;20541;-77
2022/09/06 08:46:09;;;;;;;0.50;0.30;;;37.60;49.10;;;;;;5031928;28;20839;-77
2022/09/06 08:48:38;;;;;;;1.20;0.40;;;37.20;48.70;;;;;;5033490;28;20438;-78
2022/09/06 08:51:38;;;;;;;0.50;0.30;;;36.40;49.40;;;;;;5032237;28;20932;-76
2022/09/06 08:54:12;;;;;;;0.50;0.40;;;36.20;50.50;;;;;;5026068;28;20465;-78
2022/09/06 08:56:52;;;;;;;0.70;0.40;;;35.60;50.80;;;;;;5033496;28;20810;-78
2022/09/06 08:59:19;;;;;;;0.50;0.30;;;35.80;51.40;;;;;;5031957;28;20529;-78
2022/09/06 09:02:03;;;;;;;0.50;0.40;;;36.00;50.50;;;;;;5030943;28;20890;-77
2022/09/06 09:04:31;;;;;;;0.50;0.30;;;36.70;49.30;;;;;;5031649;28;20437;-77
2022/09/06 09:07:04;;;;;;;0.50;0.30;;;35.50;50.60;;;;;;5031211;28;20528;-77
2022/09/06 09:09:33;;;;;;;0.50;0.50;;;35.50;51.10;;;;;;5031568;28;20589;-78
2022/09/06 09:12:01;;;;;;;0.60;0.60;;;35.80;50.70;;;;;;5031744;28;20532;-77
2022/09/06 09:14:34;;;;;;;0.50;0.30;;;36.50;50.10;;;;;;5031686;28;20474;-77
2022/09/06 09:17:06;;;;;;;0.50;0.30;;;36.90;49.60;;;;;;5031701;28;20430;-76
2022/09/06 09:19:36;;;;;;;0.97;0.60;;;37.60;49.20;;;;;;5031912;28;20453;-78
2022/09/06 09:22:03;;;;;;;0.60;0.50;;;38.10;48.70;;;;;;5032152;28;20864;-77
2022/09/06 09:24:31;;;;;;;0.50;0.40;;;37.30;48.30;;;;;;5031324;28;20477;-79
2022/09/06 09:27:05;;;;;;;0.50;0.30;;;36.60;49.50;;;;;;5031390;28;21017;-77
2022/09/06 09:29:32;;;;;;;0.50;0.30;;;37.30;49.30;;;;;;5031056;28;20516;-78
2022/09/06 09:31:59;;;;;;;0.40;0.30;;;38.00;48.60;;;;;;5031703;28;20516;-78
2022/09/06 09:34:32;;;;;;;0.60;0.50;;;38.80;48.30;;;;;;5031352;28;20485;-78
2022/09/06 09:37:13;;;;;;;0.40;0.30;;;38.90;46.50;;;;;;5030805;28;20525;-79
2022/09/06 09:39:40;;;;;;;0.60;0.60;;;38.40;47.70;;;;;;5031317;28;20529;-76
2022/09/06 09:42:08;;;;;;;0.43;0.30;;;37.70;47.10;;;;;;5030735;28;20446;-77
2022/09/06 09:44:42;;;;;;;0.50;0.30;;;37.10;47.90;;;;;;5030962;28;20457;-78
2022/09/06 09:47:24;;;;;;;0.43;0.33;;;37.50;48.00;;;;;;5031452;28;20449;-78
2022/09/06 09:49:52;;;;;;;0.60;0.40;;;38.10;46.70;;;;;;5031565;28;20573;-77
2022/09/06 09:52:26;;;;;;;0.97;0.97;;;38.40;47.70;;;;;;5031020;28;20552;-78
2022/09/06 09:54:55;;;;;;;0.90;0.60;;;38.60;46.00;;;;;;5030906;28;20458;-77
2022/09/06 09:57:23;;;;;;;0.50;0.30;;;39.00;46.50;;;;;;5031667;28;20448;-78
2022/09/06 09:59:53;;;;;;;0.40;0.30;;;39.10;46.20;;;;;;5031900;28;20426;-78
2022/09/06 10:02:24;;;;;;;0.40;0.30;;;39.60;45.90;;;;;;5031953;28;20525;-78
2022/09/06 10:05:00;;;;;;;0.40;0.30;;;39.10;46.00;;;;;;5031645;28;20544;-78
2022/09/06 10:07:27;;;;;;;0.50;0.40;;;39.40;45.60;;;;;;5031365;28;20525;-77
2022/09/06 10:09:59;;;;;;;0.40;0.30;;;38.80;46.10;;;;;;5031344;28;20470;-76
2022/09/06 10:12:31;;;;;;;0.40;0.30;;;38.50;46.60;;;;;;5031156;28;20438;-74
2022/09/06 10:14:58;;;;;;;0.50;0.40;;;38.80;47.00;;;;;;5035122;28;20544;-78
2022/09/06 10:17:31;;;;;;;0.40;0.30;;;39.70;45.60;;;;;;5036279;28;20441;-79
2022/09/06 10:20:06;;;;;;;0.40;0.30;;;39.70;46.50;;;;;;5036073;28;20444;-77
2022/09/06 10:22:42;;;;;;;0.40;0.30;;;40.90;45.30;;;;;;5035771;28;20425;-77
2022/09/06 10:25:36;;;;;;;0.40;0.30;;;41.80;43.50;;;;;;5035701;28;20536;-78
2022/09/06 10:28:37;;;;;;;0.40;0.30;;;41.90;43.20;;;;;;5035635;28;20438;-78
2022/09/06 10:31:30;;;;;;;0.40;0.30;;;41.90;42.50;;;;;;5035479;28;20492;-78
2022/09/06 10:34:10;;;;;;;0.50;0.50;;;42.00;42.40;;;;;;5035417;28;20900;-76
2022/09/06 10:36:44;;;;;;;0.50;0.43;;;41.50;42.20;;;;;;5035272;28;20457;-79
2022/09/06 10:39:25;;;;;;;1.10;1.07;;;41.40;42.50;;;;;;5035543;28;20533;-78
2022/09/06 10:42:09;;;;;;;0.40;0.30;;;40.90;43.60;;;;;;5035300;28;20467;-79
2022/09/06 10:44:52;;;;;;;0.40;0.30;;;41.50;43.90;;;;;;5035140;28;20851;-79
2022/09/06 10:47:19;;;;;;;0.40;0.30;;;42.40;42.50;;;;;;5034846;28;20867;-79
2022/09/06 10:49:50;;;;;;;0.40;0.30;;;43.20;42.30;;;;;;5034903;28;20485;-79
2022/09/06 10:52:24;;;;;;;0.40;0.30;;;43.50;42.00;;;;;;5035221;28;20795;-78
2022/09/06 10:54:53;;;;;;;0.40;0.30;;;43.90;40.50;;;;;;5034223;28;20544;-78
2022/09/06 10:57:26;;;;;;;1.33;0.93;;;42.70;41.00;;;;;;5034875;28;20469;-75
2022/09/06 10:59:59;;;;;;;0.40;0.30;;;42.70;41.20;;;;;;5034126;28;20440;-78
2022/09/06 11:02:37;;;;;;;0.40;0.30;;;42.50;42.00;;;;;;5035090;28;20465;-79
2022/09/06 11:05:10;;;;;;;0.40;0.30;;;43.70;41.30;;;;;;5034279;28;20475;-77
2022/09/06 11:07:42;;;;;;;0.40;0.30;;;44.40;39.80;;;;;;5034695;28;20438;-79
2022/09/06 11:10:16;;;;;;;1.33;0.87;;;43.70;39.50;;;;;;5034811;28;20472;-78
2022/09/06 11:12:50;;;;;;;0.40;0.30;;;42.10;41.20;;;;;;5035105;28;20437;-79
2022/09/06 11:15:19;;;;;;;0.40;0.30;;;42.00;41.60;;;;;;5034334;28;20552;-76
2022/09/06 11:17:51;;;;;;;0.40;0.30;;;42.80;41.20;;;;;;5034742;28;21183;-78
2022/09/06 11:20:24;;;;;;;0.40;0.30;;;43.00;40.80;;;;;;5035467;28;20433;-78
2022/09/06 11:23:13;;;;;;;0.40;0.30;;;42.90;40.50;;;;;;5035051;28;20528;-78
2022/09/06 11:26:13;;;;;;;0.50;0.30;;;42.50;41.50;;;;;;5034192;28;20492;-79
2022/09/06 11:28:44;;;;;;;0.50;0.30;;;42.70;41.30;;;;;;5011506;28;20528;-79
2022/09/06 11:31:18;;;;;;;0.40;0.30;;;42.40;41.00;;;;;;5034404;28;20481;-78
2022/09/06 11:33:48;;;;;;;0.47;0.47;;;42.70;40.90;;;;;;5035386;28;20450;-78
2022/09/06 11:36:25;;;;;;;0.40;0.30;;;41.80;40.90;;;;;;5033618;28;20466;-78
2022/09/06 11:38:58;;;;;;;0.40;0.30;;;40.10;42.50;;;;;;5033777;28;20448;-78
2022/09/06 11:41:30;;;;;;;0.40;0.30;;;39.60;43.20;;;;;;5034128;28;20454;-78
2022/09/06 11:43:57;;;;;;;0.40;0.30;;;40.10;43.70;;;;;;5034002;28;20536;-79
2022/09/06 11:47:01;;;;;;;0.40;0.30;;;40.50;42.70;;;;;;5034141;28;20466;-77
2022/09/06 11:49:36;;;;;;;0.40;0.30;;;40.50;42.90;;;;;;5033653;28;20445;-78
2022/09/06 11:52:18;;;;;;;0.40;0.30;;;40.70;42.40;;;;;;5034598;28;20528;-78
2022/09/06 11:54:47;;;;;;;0.40;0.30;;;40.70;42.40;;;;;;5032584;28;20886;-77
2022/09/06 11:57:17;;;;;;;0.50;0.47;;;39.70;43.70;;;;;;5034170;28;20445;-78
2022/09/06 12:00:00;;;;;;;0.70;0.50;;;40.10;42.90;;;;;;5034190;28;20667;-77
2022/09/06 12:02:37;;;;;;;0.50;0.30;;;39.90;43.00;;;;;;5033375;28;20446;-76
2022/09/06 12:05:28;;;;;;;0.50;0.50;;;39.10;43.30;;;;;;5032812;28;20496;-75
2022/09/06 12:08:24;;;;;;;0.40;0.40;;;37.80;45.50;;;;;;5034347;28;20939;-79
2022/09/06 12:10:58;;;;;;;0.40;0.30;;;38.00;45.10;;;;;;5033989;28;20465;-80
2022/09/06 12:13:40;;;;;;;0.40;0.30;;;37.90;45.20;;;;;;5034675;28;20479;-80
2022/09/06 12:16:08;;;;;;;0.50;0.50;;;38.50;44.70;;;;;;5033313;28;20530;-79
2022/09/06 12:18:59;;;;;;;0.40;0.30;;;39.00;44.50;;;;;;5034470;28;20943;-78
2022/09/06 12:21:34;;;;;;;1.20;0.73;;;39.90;44.00;;;;;;5034501;28;20533;-77
2022/09/06 12:24:02;;;;;;;0.40;0.30;;;40.00;43.60;;;;;;5034623;28;20437;-78
2022/09/06 12:26:53;;;;;;;0.70;0.50;;;40.10;43.70;;;;;;5034143;28;20542;-79
2022/09/06 12:29:25;;;;;;;0.40;0.30;;;40.10;43.00;;;;;;5030676;28;20944;-79
2022/09/06 12:31:53;;;;;;;0.40;0.30;;;39.60;44.40;;;;;;5034069;28;20465;-79
2022/09/06 12:34:23;;;;;;;0.40;0.30;;;40.00;43.60;;;;;;5034278;28;20434;-80
2022/09/06 12:36:57;;;;;;;0.40;0.30;;;39.80;43.60;;;;;;5035857;28;20453;-77
2022/09/06 12:39:24;;;;;;;0.50;0.40;;;39.90;44.10;;;;;;5037119;28;20426;-75
2022/09/06 12:41:56;;;;;;;0.40;0.30;;;40.30;43.60;;;;;;5036744;28;20430;-80
2022/09/06 12:44:32;;;;;;;0.40;0.30;;;40.40;43.40;;;;;;5033903;28;20537;-79
2022/09/06 12:47:04;;;;;;;0.40;0.30;;;40.60;43.80;;;;;;5034292;28;20444;-79
2022/09/06 12:49:32;;;;;;;0.87;0.50;;;40.20;43.60;;;;;;5034184;28;20468;-79
2022/09/06 12:52:13;;;;;;;0.40;0.30;;;39.70;44.60;;;;;;5034019;28;20480;-79
2022/09/06 12:54:45;;;;;;;0.40;0.40;;;40.00;44.10;;;;;;5033419;28;20545;-80
2022/09/06 12:57:18;;;;;;;0.40;0.30;;;40.40;44.20;;;;;;5034652;28;20816;-80
2022/09/06 12:59:49;;;;;;;0.40;0.30;;;40.80;43.50;;;;;;5034164;28;20437;-80
2022/09/06 13:02:20;;;;;;;1.13;1.13;;;40.50;43.70;;;;;;5034155;28;20529;-80
2022/09/06 13:04:52;;;;;;;0.40;0.30;;;39.60;44.20;;;;;;5037611;28;20525;-79